Island Lake Airport
CYIV : now visible

Airfield :











YOU CAN JOIN US ON...

 
LOGIN :

Register | Disclaimer

   EN    FR    IT 

 









Legend :    VFR   Marginal VFR   IFR   Intensive IFR   Very Intensive IFR
Visi :
Ceiling :
>= 8 km
>= 3000ft
5 to 8 km
1000 to 3000 ft
1500m to 5 km
500 to 1000 ft
800 to 1500m
200 to 500 ft
< 800m
< 200 ft
Symbols :   Thunderstorms  Fog  Heavy snow  Heavy precipitations  Wind > 20 kt






- Airport Elevation : 770 ft
- IATA code : YIV


CYIV - Island Lake

CURRENT METAR :
  • 012100Z AUTO 30016G29KT 9SM BKN040 OVC050 12/06 A2980 RMK SLP100 DENSITY ALT 800FT

EXPIRED METARs :
  • 012059Z AUTO 31013G29KT 9SM BKN042 OVC050 13/07 A2980 RMK SLP100 DENSITY ALT 800FT
  • 012032Z AUTO 31013G25KT 9SM -RA OVC036 12/06 A2979 RMK SLP098 DENSITY ALT 800FT
  • 012000Z AUTO 30019G30KT 9SM BKN038 OVC046 13/06 A2978 RMK SLP095 DENSITY ALT 900FT
  • 010500Z AUTO 28015G24KT 9SM CLR 08/05 A2971 RMK SLP071
  • 011942Z AUTO 30017G34KT 9SM BKN040 OVC049 13/05 A2977 RMK SLP090 DENSITY ALT 900FT
  • 011920Z AUTO 31017G32KT 9SM -RA OVC042 12/05 A2977 RMK SLP090 DENSITY ALT 800FT
  • 011900Z AUTO 30017G35KT 9SM SCT039 BKN047 OVC055 12/05 A2976 RMK SLP089 DENSITY ALT 800FT

Expired Forecast.
CZWG FIR / North America



MET'MAP, your aeronautical weather chart ! - Copyright ORBIFLY December 2007 - Disclaimer

ORBIFLY MET'MAP TEAM :

Programming & Development : Alexandra Zaïnal
Original concept : Baudouin d'Aumeries
Technical & hardware support : Manuel Goepfert
Assistance : Marc-Olivier Méhu




SOURCES & CREDITS :

   NOAA       Earth
Advisory